sensor_id;sensor_type;location;lat;lon;timestamp;pressure;altitude;pressure_sealevel;temperature;humidity
77011;BME280;65945;53.148;17.956;2024-02-28T00:00:06;101260.63;;;5.88;98.64
77011;BME280;65945;53.148;17.956;2024-02-28T00:02:34;101259.46;;;5.86;98.51
77011;BME280;65945;53.148;17.956;2024-02-28T00:05:00;101261.24;;;5.85;98.56
77011;BME280;65945;53.148;17.956;2024-02-28T00:07:27;101258.70;;;5.84;98.63
77011;BME280;65945;53.148;17.956;2024-02-28T00:09:54;101260.63;;;5.83;98.57
77011;BME280;65945;53.148;17.956;2024-02-28T00:12:24;101265.02;;;5.84;98.61
77011;BME280;65945;53.148;17.956;2024-02-28T00:14:53;101263.45;;;5.83;98.76
77011;BME280;65945;53.148;17.956;2024-02-28T00:17:20;101263.23;;;5.82;98.63
77011;BME280;65945;53.148;17.956;2024-02-28T00:19:46;101261.04;;;5.81;98.63
77011;BME280;65945;53.148;17.956;2024-02-28T00:22:13;101260.59;;;5.80;98.89
77011;BME280;65945;53.148;17.956;2024-02-28T00:24:40;101258.95;;;5.79;98.85
77011;BME280;65945;53.148;17.956;2024-02-28T00:27:07;101257.70;;;5.77;99.29
77011;BME280;65945;53.148;17.956;2024-02-28T00:29:34;101255.95;;;5.74;99.19
77011;BME280;65945;53.148;17.956;2024-02-28T00:32:00;101255.16;;;5.72;99.37
77011;BME280;65945;53.148;17.956;2024-02-28T00:34:27;101258.10;;;5.71;99.23
77011;BME280;65945;53.148;17.956;2024-02-28T00:36:53;101263.40;;;5.71;99.13
77011;BME280;65945;53.148;17.956;2024-02-28T00:39:20;101263.46;;;5.71;99.46
77011;BME280;65945;53.148;17.956;2024-02-28T00:41:47;101271.02;;;5.70;99.25
77011;BME280;65945;53.148;17.956;2024-02-28T00:44:13;101269.54;;;5.70;99.54
77011;BME280;65945;53.148;17.956;2024-02-28T00:46:40;101268.50;;;5.69;99.54
77011;BME280;65945;53.148;17.956;2024-02-28T00:49:07;101271.98;;;5.67;99.47
77011;BME280;65945;53.148;17.956;2024-02-28T00:51:33;101266.89;;;5.65;99.57
77011;BME280;65945;53.148;17.956;2024-02-28T00:54:02;101262.70;;;5.65;99.74
77011;BME280;65945;53.148;17.956;2024-02-28T00:56:30;101259.11;;;5.64;99.68
77011;BME280;65945;53.148;17.956;2024-02-28T00:58:56;101258.59;;;5.64;99.67
77011;BME280;65945;53.148;17.956;2024-02-28T01:01:23;101259.10;;;5.64;99.88
77011;BME280;65945;53.148;17.956;2024-02-28T01:03:50;101259.11;;;5.64;99.76
77011;BME280;65945;53.148;17.956;2024-02-28T01:06:16;101261.92;;;5.65;99.82
77011;BME280;65945;53.148;17.956;2024-02-28T01:08:43;101263.73;;;5.64;99.61
77011;BME280;65945;53.148;17.956;2024-02-28T01:11:10;101264.02;;;5.65;99.74
77011;BME280;65945;53.148;17.956;2024-02-28T01:13:37;101256.54;;;5.67;99.85
77011;BME280;65945;53.148;17.956;2024-02-28T01:16:03;101252.23;;;5.69;99.92
77011;BME280;65945;53.148;17.956;2024-02-28T01:18:30;101246.39;;;5.69;99.64
77011;BME280;65945;53.148;17.956;2024-02-28T01:20:58;101242.58;;;5.69;99.88
77011;BME280;65945;53.148;17.956;2024-02-28T01:23:25;101238.39;;;5.67;99.81
77011;BME280;65945;53.148;17.956;2024-02-28T01:25:51;101236.23;;;5.65;99.82
77011;BME280;65945;53.148;17.956;2024-02-28T01:28:18;101234.80;;;5.62;99.88
77011;BME280;65945;53.148;17.956;2024-02-28T01:30:45;101237.10;;;5.61;99.81
77011;BME280;65945;53.148;17.956;2024-02-28T01:33:12;101246.13;;;5.61;99.93
77011;BME280;65945;53.148;17.956;2024-02-28T01:35:40;101256.59;;;5.61;99.87
77011;BME280;65945;53.148;17.956;2024-02-28T01:38:07;101262.37;;;5.63;99.98
77011;BME280;65945;53.148;17.956;2024-02-28T01:40:33;101260.30;;;5.66;99.98
77011;BME280;65945;53.148;17.956;2024-02-28T01:43:07;101264.06;;;5.68;100.00
77011;BME280;65945;53.148;17.956;2024-02-28T01:45:34;101264.55;;;5.70;99.94
77011;BME280;65945;53.148;17.956;2024-02-28T01:48:02;101267.49;;;5.71;100.00
77011;BME280;65945;53.148;17.956;2024-02-28T01:50:29;101270.84;;;5.71;99.90
77011;BME280;65945;53.148;17.956;2024-02-28T01:52:56;101270.77;;;5.70;99.75
77011;BME280;65945;53.148;17.956;2024-02-28T01:55:23;101269.87;;;5.67;99.90
77011;BME280;65945;53.148;17.956;2024-02-28T01:57:52;101278.16;;;5.66;99.86
77011;BME280;65945;53.148;17.956;2024-02-28T02:00:19;101279.23;;;5.67;99.93
77011;BME280;65945;53.148;17.956;2024-02-28T02:02:47;101278.21;;;5.64;99.80
77011;BME280;65945;53.148;17.956;2024-02-28T02:05:14;101274.68;;;5.63;99.89
77011;BME280;65945;53.148;17.956;2024-02-28T02:07:43;101278.11;;;5.62;99.92
77011;BME280;65945;53.148;17.956;2024-02-28T02:10:09;101278.15;;;5.60;99.83
77011;BME280;65945;53.148;17.956;2024-02-28T02:12:38;101279.48;;;5.57;99.99
77011;BME280;65945;53.148;17.956;2024-02-28T02:15:05;101274.48;;;5.56;99.97
77011;BME280;65945;53.148;17.956;2024-02-28T02:17:32;101277.95;;;5.55;100.00
77011;BME280;65945;53.148;17.956;2024-02-28T02:19:59;101271.58;;;5.53;99.95
77011;BME280;65945;53.148;17.956;2024-02-28T02:24:57;101272.86;;;5.53;100.00
77011;BME280;65945;53.148;17.956;2024-02-28T02:27:24;101271.88;;;5.51;100.00
77011;BME280;65945;53.148;17.956;2024-02-28T02:29:52;101273.46;;;5.51;100.00
77011;BME280;65945;53.148;17.956;2024-02-28T02:32:19;101269.16;;;5.50;100.00
77011;BME280;65945;53.148;17.956;2024-02-28T02:34:45;101266.48;;;5.48;100.00
77011;BME280;65945;53.148;17.956;2024-02-28T02:37:12;101260.73;;;5.47;100.00
77011;BME280;65945;53.148;17.956;2024-02-28T02:39:39;101260.76;;;5.46;100.00
77011;BME280;65945;53.148;17.956;2024-02-28T02:42:05;101259.13;;;5.45;100.00
77011;BME280;65945;53.148;17.956;2024-02-28T02:44:33;101259.46;;;5.44;100.00
77011;BME280;65945;53.148;17.956;2024-02-28T02:47:00;101256.67;;;5.43;100.00
77011;BME280;65945;53.148;17.956;2024-02-28T02:53:41;101249.27;;;5.41;100.00
77011;BME280;65945;53.148;17.956;2024-02-28T02:56:07;101245.57;;;5.40;100.00
77011;BME280;65945;53.148;17.956;2024-02-28T02:58:34;101248.69;;;5.38;100.00
77011;BME280;65945;53.148;17.956;2024-02-28T03:01:01;101247.89;;;5.38;100.00
77011;BME280;65945;53.148;17.956;2024-02-28T03:03:28;101251.23;;;5.38;100.00
77011;BME280;65945;53.148;17.956;2024-02-28T03:05:54;101254.41;;;5.38;100.00
77011;BME280;65945;53.148;17.956;2024-02-28T03:08:21;101252.04;;;5.37;100.00
77011;BME280;65945;53.148;17.956;2024-02-28T03:10:48;101250.23;;;5.37;100.00
77011;BME280;65945;53.148;17.956;2024-02-28T03:13:14;101250.57;;;5.37;100.00
77011;BME280;65945;53.148;17.956;2024-02-28T03:15:41;101248.79;;;5.36;100.00
77011;BME280;65945;53.148;17.956;2024-02-28T03:18:07;101251.58;;;5.35;100.00
77011;BME280;65945;53.148;17.956;2024-02-28T03:20:34;101251.31;;;5.35;100.00
77011;BME280;65945;53.148;17.956;2024-02-28T03:23:03;101251.43;;;5.34;100.00
77011;BME280;65945;53.148;17.956;2024-02-28T03:25:32;101249.24;;;5.35;100.00
77011;BME280;65945;53.148;17.956;2024-02-28T03:28:00;101246.26;;;5.35;100.00
77011;BME280;65945;53.148;17.956;2024-02-28T03:30:27;101248.41;;;5.36;100.00
77011;BME280;65945;53.148;17.956;2024-02-28T03:32:54;101248.23;;;5.37;100.00
77011;BME280;65945;53.148;17.956;2024-02-28T03:35:21;101248.11;;;5.37;100.00
77011;BME280;65945;53.148;17.956;2024-02-28T03:37:47;101250.98;;;5.37;100.00
77011;BME280;65945;53.148;17.956;2024-02-28T03:40:14;101246.55;;;5.36;100.00
77011;BME280;65945;53.148;17.956;2024-02-28T03:42:41;101246.82;;;5.36;100.00
77011;BME280;65945;53.148;17.956;2024-02-28T03:45:08;101242.98;;;5.35;100.00
77011;BME280;65945;53.148;17.956;2024-02-28T03:47:34;101242.99;;;5.34;100.00
77011;BME280;65945;53.148;17.956;2024-02-28T03:50:01;101243.80;;;5.33;100.00
77011;BME280;65945;53.148;17.956;2024-02-28T03:52:30;101247.23;;;5.34;100.00
77011;BME280;65945;53.148;17.956;2024-02-28T03:54:57;101248.05;;;5.33;100.00
77011;BME280;65945;53.148;17.956;2024-02-28T03:57:24;101250.64;;;5.34;100.00
77011;BME280;65945;53.148;17.956;2024-02-28T03:59:51;101248.89;;;5.34;100.00
77011;BME280;65945;53.148;17.956;2024-02-28T04:02:17;101253.36;;;5.33;100.00
77011;BME280;65945;53.148;17.956;2024-02-28T04:04:44;101252.79;;;5.33;100.00
77011;BME280;65945;53.148;17.956;2024-02-28T04:07:11;101251.73;;;5.33;100.00
77011;BME280;65945;53.148;17.956;2024-02-28T04:09:37;101255.79;;;5.34;100.00
77011;BME280;65945;53.148;17.956;2024-02-28T04:12:04;101256.63;;;5.34;100.00
77011;BME280;65945;53.148;17.956;2024-02-28T04:14:31;101257.92;;;5.34;100.00
77011;BME280;65945;53.148;17.956;2024-02-28T04:16:57;101252.35;;;5.33;100.00
77011;BME280;65945;53.148;17.956;2024-02-28T04:19:24;101256.91;;;5.33;100.00
77011;BME280;65945;53.148;17.956;2024-02-28T04:21:51;101260.21;;;5.33;100.00
77011;BME280;65945;53.148;17.956;2024-02-28T04:24:17;101258.44;;;5.32;100.00
77011;BME280;65945;53.148;17.956;2024-02-28T04:26:44;101264.98;;;5.31;100.00
77011;BME280;65945;53.148;17.956;2024-02-28T04:29:10;101262.75;;;5.31;100.00
77011;BME280;65945;53.148;17.956;2024-02-28T04:31:40;101262.06;;;5.31;100.00
77011;BME280;65945;53.148;17.956;2024-02-28T04:34:07;101268.85;;;5.31;100.00
77011;BME280;65945;53.148;17.956;2024-02-28T04:36:33;101271.02;;;5.32;100.00
77011;BME280;65945;53.148;17.956;2024-02-28T04:39:00;101270.52;;;5.33;100.00
77011;BME280;65945;53.148;17.956;2024-02-28T04:41:28;101270.23;;;5.33;100.00
77011;BME280;65945;53.148;17.956;2024-02-28T04:43:54;101267.44;;;5.34;100.00
77011;BME280;65945;53.148;17.956;2024-02-28T04:46:21;101265.17;;;5.34;100.00
77011;BME280;65945;53.148;17.956;2024-02-28T04:48:48;101261.65;;;5.33;100.00
77011;BME280;65945;53.148;17.956;2024-02-28T04:51:17;101259.21;;;5.32;100.00
77011;BME280;65945;53.148;17.956;2024-02-28T04:53:44;101257.02;;;5.31;100.00
77011;BME280;65945;53.148;17.956;2024-02-28T04:56:11;101261.36;;;5.31;100.00
77011;BME280;65945;53.148;17.956;2024-02-28T04:58:37;101260.81;;;5.33;100.00
77011;BME280;65945;53.148;17.956;2024-02-28T05:01:04;101265.02;;;5.31;100.00
77011;BME280;65945;53.148;17.956;2024-02-28T05:03:31;101263.17;;;5.31;100.00
77011;BME280;65945;53.148;17.956;2024-02-28T05:05:57;101262.02;;;5.33;100.00
77011;BME280;65945;53.148;17.956;2024-02-28T05:08:24;101260.63;;;5.33;100.00
77011;BME280;65945;53.148;17.956;2024-02-28T05:10:51;101261.75;;;5.33;100.00
77011;BME280;65945;53.148;17.956;2024-02-28T05:13:18;101258.57;;;5.33;100.00
77011;BME280;65945;53.148;17.956;2024-02-28T05:15:45;101264.20;;;5.35;100.00
77011;BME280;65945;53.148;17.956;2024-02-28T05:18:11;101262.66;;;5.35;100.00
77011;BME280;65945;53.148;17.956;2024-02-28T05:20:38;101261.02;;;5.35;100.00
77011;BME280;65945;53.148;17.956;2024-02-28T05:23:05;101269.61;;;5.35;100.00
77011;BME280;65945;53.148;17.956;2024-02-28T05:25:31;101274.59;;;5.35;100.00
77011;BME280;65945;53.148;17.956;2024-02-28T05:27:58;101275.34;;;5.35;100.00
77011;BME280;65945;53.148;17.956;2024-02-28T05:30:25;101275.27;;;5.34;100.00
77011;BME280;65945;53.148;17.956;2024-02-28T05:32:51;101278.38;;;5.34;100.00
77011;BME280;65945;53.148;17.956;2024-02-28T05:35:18;101283.09;;;5.34;100.00
77011;BME280;65945;53.148;17.956;2024-02-28T05:37:45;101283.35;;;5.35;100.00
77011;BME280;65945;53.148;17.956;2024-02-28T05:40:13;101289.16;;;5.34;100.00
77011;BME280;65945;53.148;17.956;2024-02-28T05:42:39;101288.55;;;5.34;100.00
77011;BME280;65945;53.148;17.956;2024-02-28T05:45:06;101292.41;;;5.35;100.00
77011;BME280;65945;53.148;17.956;2024-02-28T05:47:33;101291.70;;;5.36;100.00
77011;BME280;65945;53.148;17.956;2024-02-28T05:50:00;101293.71;;;5.37;100.00
77011;BME280;65945;53.148;17.956;2024-02-28T05:52:26;101298.54;;;5.37;100.00
77011;BME280;65945;53.148;17.956;2024-02-28T05:54:53;101304.31;;;5.37;100.00
77011;BME280;65945;53.148;17.956;2024-02-28T05:57:20;101308.30;;;5.39;100.00
77011;BME280;65945;53.148;17.956;2024-02-28T05:59:46;101314.35;;;5.42;100.00
77011;BME280;65945;53.148;17.956;2024-02-28T06:02:13;101309.98;;;5.42;100.00
77011;BME280;65945;53.148;17.956;2024-02-28T06:04:40;101313.60;;;5.42;100.00
77011;BME280;65945;53.148;17.956;2024-02-28T06:07:06;101315.50;;;5.42;100.00
77011;BME280;65945;53.148;17.956;2024-02-28T06:09:33;101325.25;;;5.43;100.00
77011;BME280;65945;53.148;17.956;2024-02-28T06:12:00;101328.39;;;5.42;100.00
77011;BME280;65945;53.148;17.956;2024-02-28T06:14:28;101327.73;;;5.41;100.00
77011;BME280;65945;53.148;17.956;2024-02-28T06:16:54;101325.64;;;5.40;100.00
77011;BME280;65945;53.148;17.956;2024-02-28T06:19:21;101329.56;;;5.40;100.00
77011;BME280;65945;53.148;17.956;2024-02-28T06:21:48;101331.19;;;5.39;100.00
77011;BME280;65945;53.148;17.956;2024-02-28T06:24:14;101329.04;;;5.37;100.00
77011;BME280;65945;53.148;17.956;2024-02-28T06:26:41;101330.92;;;5.36;100.00
77011;BME280;65945;53.148;17.956;2024-02-28T06:29:09;101330.53;;;5.34;100.00
77011;BME280;65945;53.148;17.956;2024-02-28T06:31:36;101334.20;;;5.34;100.00
77011;BME280;65945;53.148;17.956;2024-02-28T06:34:03;101333.52;;;5.36;100.00
77011;BME280;65945;53.148;17.956;2024-02-28T06:36:30;101337.20;;;5.38;100.00
77011;BME280;65945;53.148;17.956;2024-02-28T06:38:58;101340.21;;;5.38;100.00
77011;BME280;65945;53.148;17.956;2024-02-28T06:41:24;101341.48;;;5.37;100.00
77011;BME280;65945;53.148;17.956;2024-02-28T06:43:51;101347.88;;;5.37;100.00
77011;BME280;65945;53.148;17.956;2024-02-28T06:46:18;101346.55;;;5.36;100.00
77011;BME280;65945;53.148;17.956;2024-02-28T06:48:44;101342.91;;;5.36;100.00
77011;BME280;65945;53.148;17.956;2024-02-28T06:51:11;101346.59;;;5.35;100.00
77011;BME280;65945;53.148;17.956;2024-02-28T06:53:38;101345.70;;;5.35;100.00
77011;BME280;65945;53.148;17.956;2024-02-28T06:56:04;101344.59;;;5.35;100.00
77011;BME280;65945;53.148;17.956;2024-02-28T06:58:31;101345.17;;;5.34;100.00
77011;BME280;65945;53.148;17.956;2024-02-28T07:00:58;101352.12;;;5.35;100.00
77011;BME280;65945;53.148;17.956;2024-02-28T07:03:25;101355.46;;;5.35;100.00
77011;BME280;65945;53.148;17.956;2024-02-28T07:05:52;101355.96;;;5.36;100.00
77011;BME280;65945;53.148;17.956;2024-02-28T07:08:20;101358.96;;;5.40;100.00
77011;BME280;65945;53.148;17.956;2024-02-28T07:10:47;101364.60;;;5.44;100.00
77011;BME280;65945;53.148;17.956;2024-02-28T07:13:15;101362.10;;;5.49;100.00
77011;BME280;65945;53.148;17.956;2024-02-28T07:15:42;101364.05;;;5.54;100.00
77011;BME280;65945;53.148;17.956;2024-02-28T07:18:10;101368.81;;;5.58;100.00
77011;BME280;65945;53.148;17.956;2024-02-28T07:20:36;101374.07;;;5.59;99.91
77011;BME280;65945;53.148;17.956;2024-02-28T07:23:03;101376.22;;;5.64;99.93
77011;BME280;65945;53.148;17.956;2024-02-28T07:25:30;101376.27;;;5.69;100.00
77011;BME280;65945;53.148;17.956;2024-02-28T07:27:58;101375.77;;;5.74;100.00
77011;BME280;65945;53.148;17.956;2024-02-28T07:30:28;101376.94;;;5.79;99.98
77011;BME280;65945;53.148;17.956;2024-02-28T07:32:55;101381.70;;;5.83;99.99
77011;BME280;65945;53.148;17.956;2024-02-28T07:35:23;101390.42;;;5.87;99.89
77011;BME280;65945;53.148;17.956;2024-02-28T07:37:50;101394.48;;;5.90;99.83
77011;BME280;65945;53.148;17.956;2024-02-28T07:40:17;101395.68;;;5.94;99.80
77011;BME280;65945;53.148;17.956;2024-02-28T07:42:44;101391.26;;;5.96;99.73
77011;BME280;65945;53.148;17.956;2024-02-28T07:45:10;101390.78;;;5.99;99.61
77011;BME280;65945;53.148;17.956;2024-02-28T07:47:37;101389.36;;;6.02;99.14
77011;BME280;65945;53.148;17.956;2024-02-28T07:50:05;101391.33;;;6.08;99.54
77011;BME280;65945;53.148;17.956;2024-02-28T07:52:32;101395.79;;;6.12;99.45
77011;BME280;65945;53.148;17.956;2024-02-28T07:55:01;101398.02;;;6.17;99.19
77011;BME280;65945;53.148;17.956;2024-02-28T07:57:28;101393.56;;;6.20;98.94
77011;BME280;65945;53.148;17.956;2024-02-28T07:59:55;101389.02;;;6.23;98.71
77011;BME280;65945;53.148;17.956;2024-02-28T08:02:22;101390.86;;;6.27;98.79
77011;BME280;65945;53.148;17.956;2024-02-28T08:04:49;101385.23;;;6.28;98.57
77011;BME280;65945;53.148;17.956;2024-02-28T08:07:17;101389.35;;;6.31;98.46
77011;BME280;65945;53.148;17.956;2024-02-28T08:09:43;101390.25;;;6.31;98.15
77011;BME280;65945;53.148;17.956;2024-02-28T08:12:10;101389.10;;;6.31;97.75
77011;BME280;65945;53.148;17.956;2024-02-28T08:14:37;101392.95;;;6.32;98.13
77011;BME280;65945;53.148;17.956;2024-02-28T08:17:04;101392.50;;;6.35;97.89
77011;BME280;65945;53.148;17.956;2024-02-28T08:19:30;101392.45;;;6.35;98.06
77011;BME280;65945;53.148;17.956;2024-02-28T08:21:57;101393.21;;;6.39;97.75
77011;BME280;65945;53.148;17.956;2024-02-28T08:24:24;101388.80;;;6.41;98.09
77011;BME280;65945;53.148;17.956;2024-02-28T08:26:50;101389.33;;;6.41;97.53
77011;BME280;65945;53.148;17.956;2024-02-28T08:29:17;101393.50;;;6.42;97.34
77011;BME280;65945;53.148;17.956;2024-02-28T08:31:44;101396.30;;;6.41;97.11
77011;BME280;65945;53.148;17.956;2024-02-28T08:34:11;101397.90;;;6.43;97.22
77011;BME280;65945;53.148;17.956;2024-02-28T08:36:38;101399.89;;;6.46;97.08
77011;BME280;65945;53.148;17.956;2024-02-28T08:39:04;101403.89;;;6.52;97.32
77011;BME280;65945;53.148;17.956;2024-02-28T08:41:34;101410.40;;;6.59;97.68
77011;BME280;65945;53.148;17.956;2024-02-28T08:44:01;101408.13;;;6.65;97.46
77011;BME280;65945;53.148;17.956;2024-02-28T08:46:28;101412.11;;;6.69;97.20
77011;BME280;65945;53.148;17.956;2024-02-28T08:48:54;101411.91;;;6.71;97.12
77011;BME280;65945;53.148;17.956;2024-02-28T08:51:21;101414.27;;;6.74;96.97
77011;BME280;65945;53.148;17.956;2024-02-28T08:53:48;101408.70;;;6.77;96.92
77011;BME280;65945;53.148;17.956;2024-02-28T08:56:14;101403.41;;;6.80;96.90
77011;BME280;65945;53.148;17.956;2024-02-28T08:58:41;101400.09;;;6.80;96.62
77011;BME280;65945;53.148;17.956;2024-02-28T09:01:08;101403.60;;;6.80;96.74
77011;BME280;65945;53.148;17.956;2024-02-28T09:03:34;101413.73;;;6.82;96.71
77011;BME280;65945;53.148;17.956;2024-02-28T09:06:01;101418.27;;;6.86;96.90
77011;BME280;65945;53.148;17.956;2024-02-28T09:08:28;101424.23;;;6.90;97.14
77011;BME280;65945;53.148;17.956;2024-02-28T09:10:54;101417.44;;;6.91;96.76
77011;BME280;65945;53.148;17.956;2024-02-28T09:13:21;101422.38;;;6.91;96.56
77011;BME280;65945;53.148;17.956;2024-02-28T09:15:48;101429.42;;;6.90;96.46
77011;BME280;65945;53.148;17.956;2024-02-28T09:18:14;101430.09;;;6.92;96.65
77011;BME280;65945;53.148;17.956;2024-02-28T09:20:41;101430.19;;;6.93;96.72
77011;BME280;65945;53.148;17.956;2024-02-28T09:23:08;101422.46;;;6.96;96.77
77011;BME280;65945;53.148;17.956;2024-02-28T09:25:34;101426.20;;;6.97;96.64
77011;BME280;65945;53.148;17.956;2024-02-28T09:28:02;101425.11;;;6.98;96.50
77011;BME280;65945;53.148;17.956;2024-02-28T09:30:29;101420.58;;;7.01;96.74
77011;BME280;65945;53.148;17.956;2024-02-28T09:32:55;101418.40;;;7.04;96.88
77011;BME280;65945;53.148;17.956;2024-02-28T09:35:22;101422.02;;;7.07;96.54
77011;BME280;65945;53.148;17.956;2024-02-28T09:37:49;101427.01;;;7.07;96.51
77011;BME280;65945;53.148;17.956;2024-02-28T09:40:16;101429.77;;;7.07;96.57
77011;BME280;65945;53.148;17.956;2024-02-28T09:42:47;101432.79;;;7.09;96.93
77011;BME280;65945;53.148;17.956;2024-02-28T09:45:20;101434.14;;;7.12;97.00
77011;BME280;65945;53.148;17.956;2024-02-28T09:47:48;101434.64;;;7.10;96.35
77011;BME280;65945;53.148;17.956;2024-02-28T09:50:17;101433.20;;;7.10;96.47
77011;BME280;65945;53.148;17.956;2024-02-28T09:52:45;101431.76;;;7.12;96.47
77011;BME280;65945;53.148;17.956;2024-02-28T09:55:12;101435.08;;;7.11;96.46
77011;BME280;65945;53.148;17.956;2024-02-28T09:57:41;101437.15;;;7.13;96.63
77011;BME280;65945;53.148;17.956;2024-02-28T10:00:10;101443.87;;;7.17;96.54
77011;BME280;65945;53.148;17.956;2024-02-28T10:02:39;101451.99;;;7.23;96.77
77011;BME280;65945;53.148;17.956;2024-02-28T10:05:07;101455.55;;;7.27;96.60
77011;BME280;65945;53.148;17.956;2024-02-28T10:07:35;101459.16;;;7.33;96.60
77011;BME280;65945;53.148;17.956;2024-02-28T10:10:02;101461.70;;;7.38;96.55
77011;BME280;65945;53.148;17.956;2024-02-28T10:12:30;101465.86;;;7.43;96.44
77011;BME280;65945;53.148;17.956;2024-02-28T10:14:57;101469.63;;;7.45;96.23
77011;BME280;65945;53.148;17.956;2024-02-28T10:17:23;101468.16;;;7.48;96.16
77011;BME280;65945;53.148;17.956;2024-02-28T10:19:51;101468.86;;;7.51;96.05
77011;BME280;65945;53.148;17.956;2024-02-28T10:22:18;101469.12;;;7.54;95.95
77011;BME280;65945;53.148;17.956;2024-02-28T10:24:45;101472.48;;;7.57;95.83
77011;BME280;65945;53.148;17.956;2024-02-28T10:27:15;101473.04;;;7.60;95.68
77011;BME280;65945;53.148;17.956;2024-02-28T10:29:44;101477.91;;;7.63;95.71
77011;BME280;65945;53.148;17.956;2024-02-28T10:32:13;101474.63;;;7.67;95.67
77011;BME280;65945;53.148;17.956;2024-02-28T10:34:40;101475.49;;;7.73;95.76
77011;BME280;65945;53.148;17.956;2024-02-28T10:37:08;101482.96;;;7.80;95.80
77011;BME280;65945;53.148;17.956;2024-02-28T10:39:35;101484.02;;;7.86;95.69
77011;BME280;65945;53.148;17.956;2024-02-28T10:42:03;101481.48;;;7.91;95.35
77011;BME280;65945;53.148;17.956;2024-02-28T10:44:34;101483.55;;;7.91;94.88
77011;BME280;65945;53.148;17.956;2024-02-28T10:47:01;101485.14;;;7.93;94.77
77011;BME280;65945;53.148;17.956;2024-02-28T10:49:28;101489.59;;;7.90;94.32
77011;BME280;65945;53.148;17.956;2024-02-28T10:51:58;101485.73;;;7.87;94.20
77011;BME280;65945;53.148;17.956;2024-02-28T10:54:28;101490.61;;;7.88;94.73
77011;BME280;65945;53.148;17.956;2024-02-28T10:56:57;101489.93;;;7.89;94.60
77011;BME280;65945;53.148;17.956;2024-02-28T10:59:25;101480.52;;;7.90;94.67
77011;BME280;65945;53.148;17.956;2024-02-28T11:01:52;101479.57;;;7.92;94.67
77011;BME280;65945;53.148;17.956;2024-02-28T11:04:18;101479.94;;;7.92;94.48
77011;BME280;65945;53.148;17.956;2024-02-28T11:06:50;101482.33;;;7.92;94.45
77011;BME280;65945;53.148;17.956;2024-02-28T11:09:24;101481.59;;;7.93;94.27
77011;BME280;65945;53.148;17.956;2024-02-28T11:11:55;101476.58;;;7.93;94.20
77011;BME280;65945;53.148;17.956;2024-02-28T11:14:22;101478.65;;;7.96;94.38
77011;BME280;65945;53.148;17.956;2024-02-28T11:17:04;101482.77;;;8.01;94.59
77011;BME280;65945;53.148;17.956;2024-02-28T11:19:32;101479.33;;;8.03;94.37
77011;BME280;65945;53.148;17.956;2024-02-28T11:22:00;101481.36;;;8.03;94.06
77011;BME280;65945;53.148;17.956;2024-02-28T11:24:33;101478.10;;;8.05;94.36
77011;BME280;65945;53.148;17.956;2024-02-28T11:27:00;101480.48;;;8.07;94.14
77011;BME280;65945;53.148;17.956;2024-02-28T11:29:28;101482.23;;;8.09;94.26
77011;BME280;65945;53.148;17.956;2024-02-28T11:31:55;101485.44;;;8.14;94.31
77011;BME280;65945;53.148;17.956;2024-02-28T11:34:22;101484.27;;;8.20;94.17
77011;BME280;65945;53.148;17.956;2024-02-28T11:36:50;101484.69;;;8.26;93.97
77011;BME280;65945;53.148;17.956;2024-02-28T11:39:22;101480.23;;;8.28;93.44
77011;BME280;65945;53.148;17.956;2024-02-28T11:41:51;101480.78;;;8.30;93.30
77011;BME280;65945;53.148;17.956;2024-02-28T11:44:18;101482.22;;;8.33;93.16
77011;BME280;65945;53.148;17.956;2024-02-28T11:46:46;101487.32;;;8.33;92.73
77011;BME280;65945;53.148;17.956;2024-02-28T11:49:13;101487.17;;;8.35;92.95
77011;BME280;65945;53.148;17.956;2024-02-28T11:51:44;101489.11;;;8.39;93.06
77011;BME280;65945;53.148;17.956;2024-02-28T11:54:11;101488.42;;;8.39;91.66
77011;BME280;65945;53.148;17.956;2024-02-28T11:56:38;101491.30;;;8.39;91.77
77011;BME280;65945;53.148;17.956;2024-02-28T11:59:06;101491.36;;;8.39;91.73
77011;BME280;65945;53.148;17.956;2024-02-28T12:01:45;101494.00;;;8.38;91.58
77011;BME280;65945;53.148;17.956;2024-02-28T12:04:13;101494.80;;;8.35;91.45
77011;BME280;65945;53.148;17.956;2024-02-28T12:06:40;101493.13;;;8.34;91.77
77011;BME280;65945;53.148;17.956;2024-02-28T12:09:09;101492.30;;;8.32;91.84
77011;BME280;65945;53.148;17.956;2024-02-28T12:11:37;101497.27;;;8.31;91.97
77011;BME280;65945;53.148;17.956;2024-02-28T12:14:05;101500.40;;;8.31;91.97
77011;BME280;65945;53.148;17.956;2024-02-28T12:16:37;101503.38;;;8.31;92.15
77011;BME280;65945;53.148;17.956;2024-02-28T12:19:10;101505.39;;;8.34;92.38
77011;BME280;65945;53.148;17.956;2024-02-28T12:21:40;101504.39;;;8.35;92.38
77011;BME280;65945;53.148;17.956;2024-02-28T12:24:08;101499.86;;;8.38;92.27
77011;BME280;65945;53.148;17.956;2024-02-28T12:26:38;101499.11;;;8.40;92.00
77011;BME280;65945;53.148;17.956;2024-02-28T12:29:05;101499.90;;;8.42;92.09
77011;BME280;65945;53.148;17.956;2024-02-28T12:31:32;101502.13;;;8.46;92.15
77011;BME280;65945;53.148;17.956;2024-02-28T12:33:59;101498.16;;;8.48;91.69
77011;BME280;65945;53.148;17.956;2024-02-28T12:36:25;101504.04;;;8.51;91.86
77011;BME280;65945;53.148;17.956;2024-02-28T12:38:53;101503.27;;;8.57;91.95
77011;BME280;65945;53.148;17.956;2024-02-28T12:41:20;101503.77;;;8.61;92.02
77011;BME280;65945;53.148;17.956;2024-02-28T12:43:46;101508.90;;;8.65;91.88
77011;BME280;65945;53.148;17.956;2024-02-28T12:46:13;101507.55;;;8.69;91.66
77011;BME280;65945;53.148;17.956;2024-02-28T12:48:40;101510.43;;;8.71;91.66
77011;BME280;65945;53.148;17.956;2024-02-28T12:51:08;101507.11;;;8.71;91.49